sensor_id;sensor_type;location;lat;lon;timestamp;pressure;altitude;pressure_sealevel;temperature;humidity
62152;BME280;48139;47.474;19.034;2023-07-13T03:48:21;100041.56;;;23.21;100.00
62152;BME280;48139;47.474;19.034;2023-07-13T03:51:28;100041.56;;;23.21;100.00
62152;BME280;48139;47.474;19.034;2023-07-13T03:54:30;100034.56;;;22.86;100.00
62152;BME280;48139;47.474;19.034;2023-07-13T03:57:35;100029.94;;;22.96;100.00
62152;BME280;48139;47.474;19.034;2023-07-13T04:00:42;100030.19;;;23.11;100.00
62152;BME280;48139;47.474;19.034;2023-07-13T04:03:46;100034.13;;;22.99;100.00
62152;BME280;48139;47.474;19.034;2023-07-13T04:06:50;100037.41;;;22.92;100.00
62152;BME280;48139;47.474;19.034;2023-07-13T04:09:56;100052.16;;;22.97;100.00
62152;BME280;48139;47.474;19.034;2023-07-13T04:12:58;100072.62;;;22.88;100.00
62152;BME280;48139;47.474;19.034;2023-07-13T04:16:01;100097.66;;;22.87;100.00
62152;BME280;48139;47.474;19.034;2023-07-13T04:19:04;100117.12;;;23.05;100.00
62152;BME280;48139;47.474;19.034;2023-07-13T04:22:06;100116.81;;;23.34;100.00
62152;BME280;48139;47.474;19.034;2023-07-13T04:25:09;100109.41;;;23.54;100.00
62152;BME280;48139;47.474;19.034;2023-07-13T04:28:12;100096.53;;;23.57;100.00
62152;BME280;48139;47.474;19.034;2023-07-13T04:31:15;100100.34;;;23.47;100.00
62152;BME280;48139;47.474;19.034;2023-07-13T04:34:21;100111.94;;;23.29;100.00
62152;BME280;48139;47.474;19.034;2023-07-13T04:37:25;100119.72;;;23.49;100.00
62152;BME280;48139;47.474;19.034;2023-07-13T04:40:29;100128.72;;;23.74;100.00
62152;BME280;48139;47.474;19.034;2023-07-13T04:43:33;100137.28;;;23.93;100.00
62152;BME280;48139;47.474;19.034;2023-07-13T04:46:37;100147.62;;;23.88;100.00
62152;BME280;48139;47.474;19.034;2023-07-13T04:49:40;100151.31;;;23.79;100.00
62152;BME280;48139;47.474;19.034;2023-07-13T04:52:43;100144.91;;;23.80;100.00
62152;BME280;48139;47.474;19.034;2023-07-13T04:55:45;100160.31;;;23.86;100.00
62152;BME280;48139;47.474;19.034;2023-07-13T04:58:49;100180.69;;;23.71;100.00
62152;BME280;48139;47.474;19.034;2023-07-13T05:01:53;100186.94;;;23.28;100.00
62152;BME280;48139;47.474;19.034;2023-07-13T05:04:57;100199.75;;;23.24;100.00
62152;BME280;48139;47.474;19.034;2023-07-13T05:08:00;100227.25;;;23.35;100.00
62152;BME280;48139;47.474;19.034;2023-07-13T05:11:04;100277.50;;;23.31;100.00
62152;BME280;48139;47.474;19.034;2023-07-13T05:14:07;100311.28;;;22.51;100.00
62152;BME280;48139;47.474;19.034;2023-07-13T05:17:12;100323.22;;;22.30;100.00
62152;BME280;48139;47.474;19.034;2023-07-13T05:20:15;100348.66;;;21.68;100.00
62152;BME280;48139;47.474;19.034;2023-07-13T05:23:19;100348.41;;;21.32;100.00
62152;BME280;48139;47.474;19.034;2023-07-13T05:26:21;100342.91;;;20.86;100.00
62152;BME280;48139;47.474;19.034;2023-07-13T05:29:25;100338.22;;;20.59;100.00
62152;BME280;48139;47.474;19.034;2023-07-13T05:32:27;100337.25;;;20.60;100.00
62152;BME280;48139;47.474;19.034;2023-07-13T05:35:30;100339.88;;;20.50;100.00
62152;BME280;48139;47.474;19.034;2023-07-13T05:38:33;100319.44;;;20.51;100.00
62152;BME280;48139;47.474;19.034;2023-07-13T05:41:36;100300.00;;;20.60;100.00
62152;BME280;48139;47.474;19.034;2023-07-13T05:44:39;100301.91;;;20.39;100.00
62152;BME280;48139;47.474;19.034;2023-07-13T05:47:41;100296.78;;;20.17;100.00
62152;BME280;48139;47.474;19.034;2023-07-13T05:50:44;100309.03;;;20.08;100.00
62152;BME280;48139;47.474;19.034;2023-07-13T05:53:50;100277.06;;;19.89;100.00
62152;BME280;48139;47.474;19.034;2023-07-13T05:56:53;100273.78;;;19.76;100.00
62152;BME280;48139;47.474;19.034;2023-07-13T05:59:55;100259.78;;;19.73;100.00
62152;BME280;48139;47.474;19.034;2023-07-13T06:03:00;100254.31;;;19.75;100.00
62152;BME280;48139;47.474;19.034;2023-07-13T06:06:04;100250.13;;;19.72;100.00
62152;BME280;48139;47.474;19.034;2023-07-13T06:09:06;100228.59;;;19.76;100.00
62152;BME280;48139;47.474;19.034;2023-07-13T06:12:10;100197.50;;;19.66;100.00
62152;BME280;48139;47.474;19.034;2023-07-13T06:15:13;100120.28;;;19.68;100.00
62152;BME280;48139;47.474;19.034;2023-07-13T06:18:18;99989.22;;;19.58;100.00
62152;BME280;48139;47.474;19.034;2023-07-13T06:21:22;99896.78;;;19.71;100.00
62152;BME280;48139;47.474;19.034;2023-07-13T06:24:25;99958.28;;;20.14;100.00
62152;BME280;48139;47.474;19.034;2023-07-13T06:27:28;99983.78;;;19.98;100.00
62152;BME280;48139;47.474;19.034;2023-07-13T06:30:32;99952.97;;;20.34;100.00
62152;BME280;48139;47.474;19.034;2023-07-13T06:33:38;99932.78;;;20.68;100.00
62152;BME280;48139;47.474;19.034;2023-07-13T06:36:42;99931.00;;;21.14;100.00
62152;BME280;48139;47.474;19.034;2023-07-13T06:39:45;99920.25;;;20.61;100.00
62152;BME280;48139;47.474;19.034;2023-07-13T06:42:48;99950.31;;;21.25;100.00
62152;BME280;48139;47.474;19.034;2023-07-13T06:45:51;99940.53;;;20.89;100.00
62152;BME280;48139;47.474;19.034;2023-07-13T06:48:54;99949.09;;;20.92;100.00
62152;BME280;48139;47.474;19.034;2023-07-13T06:51:57;99954.56;;;20.91;100.00
62152;BME280;48139;47.474;19.034;2023-07-13T06:54:59;99963.13;;;21.12;100.00
62152;BME280;48139;47.474;19.034;2023-07-13T07:15:50;99960.28;;;21.94;100.00
62152;BME280;48139;47.474;19.034;2023-07-13T07:18:54;100128.87;;;22.69;100.00
62152;BME280;48139;47.474;19.034;2023-07-13T07:21:57;100099.44;;;21.90;100.00
62152;BME280;48139;47.474;19.034;2023-07-13T07:25:00;100137.62;;;22.35;100.00
62152;BME280;48139;47.474;19.034;2023-07-13T07:28:03;100139.63;;;22.95;100.00
62152;BME280;48139;47.474;19.034;2023-07-13T07:31:09;100154.78;;;23.46;100.00
62152;BME280;48139;47.474;19.034;2023-07-13T07:34:14;100171.56;;;22.78;100.00
62152;BME280;48139;47.474;19.034;2023-07-13T07:37:17;100175.50;;;22.74;100.00
62152;BME280;48139;47.474;19.034;2023-07-13T07:40:22;100170.94;;;22.67;100.00
62152;BME280;48139;47.474;19.034;2023-07-13T07:43:28;100174.97;;;22.53;100.00
62152;BME280;48139;47.474;19.034;2023-07-13T07:46:31;100175.50;;;22.57;100.00
62152;BME280;48139;47.474;19.034;2023-07-13T07:49:35;100163.06;;;22.83;100.00
62152;BME280;48139;47.474;19.034;2023-07-13T07:52:40;100152.53;;;22.81;100.00
62152;BME280;48139;47.474;19.034;2023-07-13T07:55:42;100166.25;;;23.04;100.00
62152;BME280;48139;47.474;19.034;2023-07-13T08:03:09;100160.50;;;23.17;100.00
62152;BME280;48139;47.474;19.034;2023-07-13T08:06:18;100159.03;;;23.48;100.00
62152;BME280;48139;47.474;19.034;2023-07-13T08:09:25;100150.22;;;23.64;100.00
62152;BME280;48139;47.474;19.034;2023-07-13T08:12:28;100154.16;;;23.94;100.00
62152;BME280;48139;47.474;19.034;2023-07-13T08:15:33;100144.38;;;24.19;100.00
62152;BME280;48139;47.474;19.034;2023-07-13T08:18:36;100150.22;;;24.14;100.00
62152;BME280;48139;47.474;19.034;2023-07-13T08:21:38;100160.41;;;24.02;100.00
62152;BME280;48139;47.474;19.034;2023-07-13T08:24:42;100161.06;;;24.12;100.00
62152;BME280;48139;47.474;19.034;2023-07-13T08:27:45;100177.13;;;24.04;100.00
62152;BME280;48139;47.474;19.034;2023-07-13T08:30:48;100161.97;;;24.21;100.00
62152;BME280;48139;47.474;19.034;2023-07-13T08:33:51;100165.53;;;24.46;100.00
62152;BME280;48139;47.474;19.034;2023-07-13T08:36:54;100171.72;;;24.71;100.00
62152;BME280;48139;47.474;19.034;2023-07-13T08:39:56;100176.09;;;24.96;100.00
62152;BME280;48139;47.474;19.034;2023-07-13T08:43:00;100166.50;;;25.34;100.00
62152;BME280;48139;47.474;19.034;2023-07-13T08:49:23;100161.91;;;25.59;100.00
62152;BME280;48139;47.474;19.034;2023-07-13T08:52:30;100168.50;;;25.87;100.00
62152;BME280;48139;47.474;19.034;2023-07-13T08:55:36;100166.94;;;25.93;100.00
62152;BME280;48139;47.474;19.034;2023-07-13T08:58:42;100165.94;;;25.94;100.00
62152;BME280;48139;47.474;19.034;2023-07-13T09:02:04;100166.00;;;26.17;100.00
62152;BME280;48139;47.474;19.034;2023-07-13T09:11:45;100172.66;;;26.74;98.42
62152;BME280;48139;47.474;19.034;2023-07-13T09:14:53;100173.03;;;26.71;96.11
62152;BME280;48139;47.474;19.034;2023-07-13T09:18:05;100178.03;;;26.74;96.64
62152;BME280;48139;47.474;19.034;2023-07-13T09:21:18;100167.66;;;26.71;93.89
62152;BME280;48139;47.474;19.034;2023-07-13T09:24:36;100176.13;;;27.20;92.41
62152;BME280;48139;47.474;19.034;2023-07-13T09:27:44;100170.16;;;26.96;95.51
62152;BME280;48139;47.474;19.034;2023-07-13T09:30:55;100169.69;;;27.07;96.38
62152;BME280;48139;47.474;19.034;2023-07-13T09:33:59;100170.81;;;26.98;96.35
62152;BME280;48139;47.474;19.034;2023-07-13T09:37:02;100199.22;;;26.69;94.94
62152;BME280;48139;47.474;19.034;2023-07-13T09:40:08;100199.72;;;26.50;94.51
62152;BME280;48139;47.474;19.034;2023-07-13T09:43:15;100207.97;;;26.48;97.50
62152;BME280;48139;47.474;19.034;2023-07-13T09:46:21;100212.06;;;25.97;99.93
62152;BME280;48139;47.474;19.034;2023-07-13T09:49:42;100208.00;;;26.40;99.74
62152;BME280;48139;47.474;19.034;2023-07-13T09:57:50;100215.59;;;26.60;96.34
62152;BME280;48139;47.474;19.034;2023-07-13T10:01:06;100208.78;;;26.49;95.55
62152;BME280;48139;47.474;19.034;2023-07-13T10:08:57;100213.31;;;27.17;91.30
62152;BME280;48139;47.474;19.034;2023-07-13T10:12:01;100221.47;;;26.86;90.70
62152;BME280;48139;47.474;19.034;2023-07-13T10:15:10;100224.25;;;26.70;91.11
62152;BME280;48139;47.474;19.034;2023-07-13T10:18:25;100216.75;;;27.25;93.22
62152;BME280;48139;47.474;19.034;2023-07-13T10:21:35;100214.19;;;27.47;92.38
62152;BME280;48139;47.474;19.034;2023-07-13T10:24:41;100218.06;;;27.44;84.92
62152;BME280;48139;47.474;19.034;2023-07-13T10:27:44;100221.56;;;27.15;85.29
62152;BME280;48139;47.474;19.034;2023-07-13T10:30:48;100230.31;;;27.32;84.30
62152;BME280;48139;47.474;19.034;2023-07-13T10:33:51;100235.69;;;27.32;82.75
62152;BME280;48139;47.474;19.034;2023-07-13T10:36:54;100231.31;;;27.16;84.07
62152;BME280;48139;47.474;19.034;2023-07-13T10:39:58;100239.31;;;27.39;87.82
62152;BME280;48139;47.474;19.034;2023-07-13T10:43:07;100228.03;;;27.58;82.42
62152;BME280;48139;47.474;19.034;2023-07-13T10:46:14;100229.72;;;27.74;79.90
62152;BME280;48139;47.474;19.034;2023-07-13T10:49:19;100223.97;;;27.77;78.25
62152;BME280;48139;47.474;19.034;2023-07-13T10:52:53;100226.84;;;27.76;79.45
62152;BME280;48139;47.474;19.034;2023-07-13T10:59:26;100227.66;;;27.47;82.47
62152;BME280;48139;47.474;19.034;2023-07-13T11:02:33;100215.03;;;27.62;78.43
62152;BME280;48139;47.474;19.034;2023-07-13T11:05:36;100214.59;;;27.58;77.11
62152;BME280;48139;47.474;19.034;2023-07-13T11:11:56;100215.06;;;27.10;nan
62152;BME280;48139;47.474;19.034;2023-07-13T11:15:03;100206.16;;;27.24;81.77
62152;BME280;48139;47.474;19.034;2023-07-13T11:18:21;100220.22;;;27.34;79.55
62152;BME280;48139;47.474;19.034;2023-07-13T11:21:28;100224.47;;;27.28;79.27
62152;BME280;48139;47.474;19.034;2023-07-13T11:24:49;100225.41;;;27.36;79.41
62152;BME280;48139;47.474;19.034;2023-07-13T11:31:14;100206.78;;;27.63;71.42
62152;BME280;48139;47.474;19.034;2023-07-13T11:34:25;100206.41;;;27.81;75.33
62152;BME280;48139;47.474;19.034;2023-07-13T11:37:30;100202.63;;;28.12;75.11
62152;BME280;48139;47.474;19.034;2023-07-13T11:40:33;100205.81;;;28.51;71.12
62152;BME280;48139;47.474;19.034;2023-07-13T11:43:36;100211.72;;;28.61;64.03
62152;BME280;48139;47.474;19.034;2023-07-13T11:46:44;100209.91;;;28.68;69.47
62152;BME280;48139;47.474;19.034;2023-07-13T11:49:53;100204.44;;;28.98;66.03
62152;BME280;48139;47.474;19.034;2023-07-13T11:57:41;100214.31;;;28.91;61.91
62152;BME280;48139;47.474;19.034;2023-07-13T12:00:46;100211.19;;;29.15;63.05
62152;BME280;48139;47.474;19.034;2023-07-13T12:03:49;100214.75;;;29.15;61.13
62152;BME280;48139;47.474;19.034;2023-07-13T12:06:57;100213.84;;;29.08;63.59
62152;BME280;48139;47.474;19.034;2023-07-13T12:10:17;100206.47;;;29.23;63.75
62152;BME280;48139;47.474;19.034;2023-07-13T12:13:21;100207.47;;;29.16;65.98
62152;BME280;48139;47.474;19.034;2023-07-13T12:16:30;100198.69;;;28.65;65.16
62152;BME280;48139;47.474;19.034;2023-07-13T12:19:33;100193.69;;;28.40;64.96
62152;BME280;48139;47.474;19.034;2023-07-13T12:22:36;100194.47;;;28.34;67.32
62152;BME280;48139;47.474;19.034;2023-07-13T12:25:39;100200.25;;;28.74;63.92
62152;BME280;48139;47.474;19.034;2023-07-13T12:28:48;100196.91;;;28.72;63.58
62152;BME280;48139;47.474;19.034;2023-07-13T12:36:30;100186.44;;;28.62;66.02
62152;BME280;48139;47.474;19.034;2023-07-13T12:39:43;100182.75;;;29.12;63.22
62152;BME280;48139;47.474;19.034;2023-07-13T12:42:47;100177.84;;;29.22;61.90
62152;BME280;48139;47.474;19.034;2023-07-13T12:46:01;100177.19;;;28.71;61.41
62152;BME280;48139;47.474;19.034;2023-07-13T12:49:07;100172.37;;;28.45;64.85
62152;BME280;48139;47.474;19.034;2023-07-13T12:55:45;100185.81;;;28.60;63.27
62152;BME280;48139;47.474;19.034;2023-07-13T12:58:50;100181.00;;;28.98;62.28
62152;BME280;48139;47.474;19.034;2023-07-13T13:01:57;100186.03;;;29.08;59.66
62152;BME280;48139;47.474;19.034;2023-07-13T13:05:00;100180.53;;;28.95;60.21
62152;BME280;48139;47.474;19.034;2023-07-13T13:08:03;100182.91;;;29.04;60.20
62152;BME280;48139;47.474;19.034;2023-07-13T13:11:06;100196.87;;;29.14;61.74
62152;BME280;48139;47.474;19.034;2023-07-13T13:14:09;100180.28;;;29.17;59.37
62152;BME280;48139;47.474;19.034;2023-07-13T13:17:20;100184.31;;;29.00;56.42
62152;BME280;48139;47.474;19.034;2023-07-13T13:20:23;100172.31;;;28.81;58.11
62152;BME280;48139;47.474;19.034;2023-07-13T13:23:28;100165.44;;;28.58;57.07
62152;BME280;48139;47.474;19.034;2023-07-13T13:26:30;100164.50;;;28.65;59.03
62152;BME280;48139;47.474;19.034;2023-07-13T13:29:38;100152.41;;;28.61;57.65
62152;BME280;48139;47.474;19.034;2023-07-13T13:32:43;100159.88;;;28.59;56.59
62152;BME280;48139;47.474;19.034;2023-07-13T13:35:47;100163.88;;;28.84;58.22
62152;BME280;48139;47.474;19.034;2023-07-13T13:38:50;100161.69;;;29.01;57.91
62152;BME280;48139;47.474;19.034;2023-07-13T13:41:53;100167.19;;;28.86;56.76
62152;BME280;48139;47.474;19.034;2023-07-13T13:44:56;100157.31;;;28.51;57.24
62152;BME280;48139;47.474;19.034;2023-07-13T13:47:59;100160.09;;;28.79;59.31
62152;BME280;48139;47.474;19.034;2023-07-13T13:51:15;100167.13;;;28.80;57.61
62152;BME280;48139;47.474;19.034;2023-07-13T13:54:20;100159.81;;;28.74;58.61
62152;BME280;48139;47.474;19.034;2023-07-13T13:57:23;100150.78;;;28.60;58.53
62152;BME280;48139;47.474;19.034;2023-07-13T14:00:27;100142.34;;;28.91;59.90
62152;BME280;48139;47.474;19.034;2023-07-13T14:03:30;100160.53;;;28.82;59.71
62152;BME280;48139;47.474;19.034;2023-07-13T14:06:33;100176.63;;;28.76;58.93
62152;BME280;48139;47.474;19.034;2023-07-13T14:09:36;100160.56;;;28.25;61.29
62152;BME280;48139;47.474;19.034;2023-07-13T14:12:38;100156.25;;;28.31;62.47
62152;BME280;48139;47.474;19.034;2023-07-13T14:15:41;100158.59;;;28.34;63.94
62152;BME280;48139;47.474;19.034;2023-07-13T14:18:44;100170.19;;;27.98;62.15
62152;BME280;48139;47.474;19.034;2023-07-13T14:21:47;100172.41;;;27.95;63.37
62152;BME280;48139;47.474;19.034;2023-07-13T14:24:53;100165.41;;;27.79;63.29
62152;BME280;48139;47.474;19.034;2023-07-13T14:27:58;100172.16;;;27.75;64.68
62152;BME280;48139;47.474;19.034;2023-07-13T14:31:15;100168.53;;;27.68;66.57
62152;BME280;48139;47.474;19.034;2023-07-13T14:34:18;100171.72;;;27.72;67.60
62152;BME280;48139;47.474;19.034;2023-07-13T14:37:21;100175.78;;;27.82;68.25
62152;BME280;48139;47.474;19.034;2023-07-13T14:40:28;100183.00;;;27.96;67.62
62152;BME280;48139;47.474;19.034;2023-07-13T14:43:30;100181.50;;;28.08;67.33
62152;BME280;48139;47.474;19.034;2023-07-13T14:46:33;100184.00;;;28.10;67.85
62152;BME280;48139;47.474;19.034;2023-07-13T14:49:42;100192.09;;;27.95;67.17
62152;BME280;48139;47.474;19.034;2023-07-13T14:52:46;100212.19;;;27.78;64.10
62152;BME280;48139;47.474;19.034;2023-07-13T14:55:52;100215.22;;;27.75;64.87
62152;BME280;48139;47.474;19.034;2023-07-13T14:58:55;100207.81;;;27.92;65.91
62152;BME280;48139;47.474;19.034;2023-07-13T15:01:58;100196.75;;;27.87;64.33
62152;BME280;48139;47.474;19.034;2023-07-13T15:05:00;100189.25;;;27.82;66.59
62152;BME280;48139;47.474;19.034;2023-07-13T15:08:03;100188.31;;;27.75;65.32
62152;BME280;48139;47.474;19.034;2023-07-13T15:11:07;100197.41;;;27.74;63.12
62152;BME280;48139;47.474;19.034;2023-07-13T15:14:10;100212.34;;;27.77;61.80
62152;BME280;48139;47.474;19.034;2023-07-13T15:17:23;100227.84;;;27.75;62.69
62152;BME280;48139;47.474;19.034;2023-07-13T15:20:31;100222.47;;;27.75;62.13
62152;BME280;48139;47.474;19.034;2023-07-13T15:23:35;100218.19;;;27.80;63.07
62152;BME280;48139;47.474;19.034;2023-07-13T15:26:38;100213.47;;;27.82;63.58
62152;BME280;48139;47.474;19.034;2023-07-13T15:29:41;100212.44;;;27.83;65.54
62152;BME280;48139;47.474;19.034;2023-07-13T15:32:46;100204.09;;;27.63;67.00
62152;BME280;48139;47.474;19.034;2023-07-13T15:35:49;100208.03;;;27.61;68.39
